Time;durP1;ratioP1;P1;durP2;ratioP2;P2;SDS_P1;SDS_P2;PMS_P1;PMS_P2;Temp;Humidity;BMP_temperature;BMP_pressure;BME280_temperature;BME280_humidity;BME280_pressure;Samples;Min_cycle;Max_cycle;Signal;HPM_P1;HPM_P2
2022/10/10 00:01:54;;;;;;;3.90;2.83;;;;;;;9.32;74.40;100387.88;5120852;28;20474;-67
2022/10/10 00:04:22;;;;;;;4.60;2.80;;;;;;;9.22;74.24;100385.16;5123146;28;20507;-67
2022/10/10 00:06:49;;;;;;;4.20;2.50;;;;;;;9.37;73.96;100386.53;5121766;28;20478;-68
2022/10/10 00:09:16;;;;;;;4.10;2.60;;;;;;;9.45;73.55;100377.03;5122511;28;20489;-68
2022/10/10 00:11:43;;;;;;;5.20;2.80;;;;;;;9.45;73.48;100377.03;5121675;28;20478;-68
2022/10/10 00:14:09;;;;;;;5.53;2.53;;;;;;;9.46;73.29;100373.38;5122747;28;20439;-68
2022/10/10 00:16:36;;;;;;;3.80;2.13;;;;;;;9.46;73.21;100373.38;5122021;28;20482;-67
2022/10/10 00:19:13;;;;;;;4.57;2.47;;;;;;;9.54;73.03;100362.91;5121134;28;20504;-67
2022/10/10 00:21:41;;;;;;;4.37;2.47;;;;;;;9.63;72.20;100362.09;5120804;28;20478;-67
2022/10/10 00:24:09;;;;;;;3.90;2.20;;;;;;;9.67;72.37;100362.69;5122706;28;20472;-68
2022/10/10 00:26:35;;;;;;;3.03;2.47;;;;;;;9.56;72.23;100358.25;5122311;28;20474;-68
2022/10/10 00:29:02;;;;;;;4.37;2.77;;;;;;;9.60;72.42;100354.38;5121809;28;20478;-68
2022/10/10 00:31:29;;;;;;;6.80;2.63;;;;;;;9.52;72.55;100355.00;5121762;28;20474;-68
2022/10/10 00:33:56;;;;;;;5.07;2.47;;;;;;;9.58;72.32;100350.97;5084649;28;20443;-67
2022/10/10 00:36:22;;;;;;;3.30;2.40;;;;;;;9.67;72.22;100344.84;5120741;28;20484;-67
2022/10/10 00:38:51;;;;;;;3.43;2.50;;;;;;;9.67;71.70;100341.31;5121337;28;20521;-66
2022/10/10 00:41:18;;;;;;;7.30;2.50;;;;;;;9.72;71.43;100358.66;5121412;28;20858;-67
2022/10/10 00:44:00;;;;;;;3.53;2.30;;;;;;;9.75;71.08;100344.19;5122081;28;20465;-67
2022/10/10 00:46:27;;;;;;;2.73;2.47;;;;;;;9.81;70.72;100354.34;5121739;28;20562;-67
2022/10/10 00:48:54;;;;;;;5.57;2.27;;;;;;;9.83;70.80;100348.88;5121228;28;20451;-67
2022/10/10 00:51:21;;;;;;;2.70;2.23;;;;;;;9.85;70.71;100338.91;5120722;28;20483;-67
2022/10/10 00:53:51;;;;;;;7.07;2.20;;;;;;;9.94;70.22;100351.44;5110804;28;20469;-66
2022/10/10 00:56:20;;;;;;;4.27;2.10;;;;;;;9.87;70.67;100348.44;5121293;28;20471;-67
2022/10/10 00:58:48;;;;;;;6.23;2.10;;;;;;;9.92;70.56;100342.72;5121234;28;21262;-67
2022/10/10 01:01:15;;;;;;;3.53;2.20;;;;;;;9.85;70.41;100342.41;5121447;27;20466;-67
2022/10/10 01:03:43;;;;;;;4.00;2.30;;;;;;;9.82;70.77;100337.31;5121845;28;20439;-67
2022/10/10 01:06:10;;;;;;;2.63;2.00;;;;;;;9.86;70.76;100340.56;5120092;28;20539;-67
2022/10/10 01:08:36;;;;;;;6.57;2.20;;;;;;;9.82;70.54;100331.16;5121496;28;20457;-68
2022/10/10 01:11:18;;;;;;;3.50;2.27;;;;;;;9.95;70.01;100332.59;5121087;28;21020;-67
2022/10/10 01:13:52;;;;;;;4.00;2.80;;;;;;;9.89;70.16;100337.63;5121393;28;20447;-67
2022/10/10 01:16:25;;;;;;;3.07;2.40;;;;;;;9.89;70.32;100330.47;5120280;28;20473;-67
2022/10/10 01:18:57;;;;;;;2.27;2.07;;;;;;;9.92;70.03;100335.53;5120271;28;20508;-67
2022/10/10 01:21:28;;;;;;;5.37;2.33;;;;;;;9.92;70.06;100332.88;5119297;28;20474;-68
2022/10/10 01:24:26;;;;;;;2.33;1.90;;;;;;;9.86;70.15;100332.56;5121609;28;20446;-67
2022/10/10 01:27:09;;;;;;;4.33;2.20;;;;;;;9.79;70.39;100319.75;5121126;28;20477;-66
2022/10/10 01:29:39;;;;;;;3.33;2.20;;;;;;;9.76;71.00;100322.69;5106287;28;20447;-66
2022/10/10 01:32:10;;;;;;;7.50;2.40;;;;;;;9.78;70.57;100320.72;5120780;28;20462;-66
2022/10/10 01:34:41;;;;;;;3.13;2.60;;;;;;;9.79;70.64;100324.22;5121267;28;20499;-66
2022/10/10 01:37:13;;;;;;;3.00;2.00;;;;;;;9.68;71.19;100325.16;5120443;28;20531;-66
2022/10/10 01:39:42;;;;;;;2.37;2.00;;;;;;;9.76;70.52;100319.19;5120915;28;20847;-65
2022/10/10 01:42:14;;;;;;;2.77;2.17;;;;;;;9.84;70.49;100315.84;5108521;28;20479;-66
2022/10/10 01:44:45;;;;;;;6.63;2.27;;;;;;;9.69;70.98;100310.84;5103421;28;20525;-66
2022/10/10 01:47:12;;;;;;;4.33;2.30;;;;;;;9.59;71.20;100323.31;5102052;28;20509;-66
2022/10/10 01:49:41;;;;;;;4.43;2.37;;;;;;;9.65;71.24;100313.91;5100465;28;20475;-66
2022/10/10 01:52:15;;;;;;;2.93;2.20;;;;;;;9.62;70.88;100307.03;5101755;28;20478;-66
2022/10/10 01:54:50;;;;;;;8.43;2.43;;;;;;;9.35;72.02;100311.09;5100215;28;20474;-66
2022/10/10 01:57:22;;;;;;;3.60;2.13;;;;;;;8.99;72.39;100307.06;5099429;28;20517;-66
2022/10/10 02:00:00;;;;;;;3.27;2.30;;;;;;;8.61;73.58;100303.97;5103980;28;20505;-66
2022/10/10 02:02:37;;;;;;;3.33;2.10;;;;;;;8.38;74.97;100299.63;5100284;28;20844;-66
2022/10/10 02:05:08;;;;;;;4.20;2.77;;;;;;;8.08;75.73;100306.47;5099863;28;20564;-66
2022/10/10 02:07:39;;;;;;;4.37;3.17;;;;;;;7.87;77.11;100301.88;5100900;28;20489;-66
2022/10/10 02:10:07;;;;;;;3.97;2.03;;;;;;;7.75;77.85;100294.03;5101720;28;21064;-66
2022/10/10 02:12:35;;;;;;;5.70;2.70;;;;;;;7.60;78.61;100298.75;5098680;28;20483;-66
2022/10/10 02:15:08;;;;;;;4.23;2.37;;;;;;;7.67;79.20;100292.84;5101562;28;20454;-66
2022/10/10 02:17:36;;;;;;;7.10;2.80;;;;;;;7.55;79.88;100288.44;5116624;28;20462;-67
2022/10/10 02:20:05;;;;;;;5.70;2.73;;;;;;;7.54;80.31;100290.28;5120736;28;20453;-67
2022/10/10 02:22:32;;;;;;;4.40;2.80;;;;;;;7.55;80.50;100285.78;5120558;28;20467;-66
2022/10/10 02:24:59;;;;;;;2.80;2.50;;;;;;;7.45;80.30;100283.03;5121535;28;20475;-67
2022/10/10 02:27:29;;;;;;;2.80;2.50;;;;;;;7.36;80.62;100286.41;5120470;28;20498;-67
2022/10/10 02:29:56;;;;;;;4.57;3.67;;;;;;;7.35;81.06;100282.88;5121309;28;20470;-67
2022/10/10 02:32:30;;;;;;;6.50;2.90;;;;;;;7.21;81.63;100282.28;5120519;28;20497;-67
2022/10/10 02:35:00;;;;;;;3.73;2.70;;;;;;;7.29;81.95;100288.69;5120908;28;20851;-67
2022/10/10 02:37:27;;;;;;;3.67;2.90;;;;;;;7.25;82.00;100279.22;5120751;28;20490;-67
2022/10/10 02:39:57;;;;;;;4.70;2.63;;;;;;;7.12;81.92;100284.66;5120970;28;20474;-66
2022/10/10 02:42:25;;;;;;;4.77;2.80;;;;;;;7.00;82.43;100276.78;5120713;28;20514;-67
2022/10/10 02:44:52;;;;;;;3.67;2.63;;;;;;;6.93;82.65;100274.59;5120995;28;20470;-68
2022/10/10 02:47:19;;;;;;;5.13;2.93;;;;;;;6.87;83.07;100276.84;5119852;28;20507;-67
2022/10/10 02:49:47;;;;;;;5.93;3.63;;;;;;;6.92;83.28;100272.03;5120647;28;20474;-66
2022/10/10 02:52:15;;;;;;;5.63;2.93;;;;;;;6.91;83.41;100271.19;5119551;28;20515;-67
2022/10/10 02:54:42;;;;;;;3.40;3.10;;;;;;;6.92;83.68;100280.00;5120908;28;20459;-67
2022/10/10 02:57:09;;;;;;;4.57;2.63;;;;;;;6.90;83.91;100271.31;5119587;28;20516;-67
2022/10/10 02:59:35;;;;;;;8.90;3.30;;;;;;;6.89;84.10;100266.94;5121665;28;20541;-67
2022/10/10 03:02:02;;;;;;;7.90;3.20;;;;;;;6.84;83.81;100269.09;5123512;28;20505;-67
2022/10/10 03:04:29;;;;;;;6.30;3.27;;;;;;;6.83;84.17;100259.47;5124142;28;20439;-67
2022/10/10 03:06:57;;;;;;;3.77;2.63;;;;;;;6.82;84.19;100268.38;5122820;28;20655;-68
2022/10/10 03:09:24;;;;;;;5.87;3.23;;;;;;;6.83;84.42;100272.75;5123802;28;20497;-67
2022/10/10 03:11:50;;;;;;;3.53;3.03;;;;;;;6.84;84.39;100262.00;5123679;28;20482;-68
2022/10/10 03:14:17;;;;;;;3.50;3.17;;;;;;;6.71;84.83;100261.22;5111216;28;20471;-67
2022/10/10 03:16:44;;;;;;;6.50;3.00;;;;;;;6.71;84.90;100262.06;5105544;28;21018;-68
2022/10/10 03:19:12;;;;;;;3.57;3.20;;;;;;;6.75;85.02;100262.69;5105006;28;20519;-67
2022/10/10 03:21:39;;;;;;;6.80;3.60;;;;;;;6.78;85.15;100251.81;5120863;28;20470;-67
2022/10/10 03:24:07;;;;;;;4.90;3.43;;;;;;;6.75;84.79;100258.22;5123673;28;20442;-67
2022/10/10 03:26:34;;;;;;;7.60;3.07;;;;;;;6.67;84.94;100257.97;5123384;28;20475;-67
2022/10/10 03:29:01;;;;;;;5.77;3.10;;;;;;;6.70;85.09;100255.06;5123773;28;20447;-67
2022/10/10 03:31:28;;;;;;;4.40;3.00;;;;;;;6.65;85.11;100256.38;5122996;28;20466;-67
2022/10/10 03:33:55;;;;;;;6.83;3.10;;;;;;;6.56;85.53;100253.44;5123219;28;20551;-67
2022/10/10 03:36:22;;;;;;;4.53;3.33;;;;;;;6.47;85.62;100240.84;5122347;28;20470;-67
2022/10/10 03:38:48;;;;;;;4.37;3.60;;;;;;;6.40;85.80;100250.22;5123460;28;20522;-67
2022/10/10 03:41:19;;;;;;;4.67;3.30;;;;;;;6.32;85.90;100248.16;5122926;28;20474;-67
2022/10/10 03:43:46;;;;;;;5.30;3.20;;;;;;;6.26;85.98;100242.44;5123206;28;20515;-67
2022/10/10 03:46:13;;;;;;;4.60;3.10;;;;;;;6.19;86.25;100239.38;5122761;28;20500;-67
2022/10/10 03:48:40;;;;;;;4.10;3.43;;;;;;;6.23;86.88;100240.84;5123384;28;20848;-67
2022/10/10 03:51:07;;;;;;;3.60;3.13;;;;;;;6.21;87.08;100233.03;5122225;28;20481;-67
2022/10/10 03:53:35;;;;;;;6.97;3.87;;;;;;;6.24;87.14;100233.75;5123232;28;20450;-67
2022/10/10 03:56:02;;;;;;;4.27;3.83;;;;;;;6.19;86.80;100231.44;5122179;28;20557;-67
2022/10/10 03:58:30;;;;;;;6.47;3.50;;;;;;;6.14;87.11;100236.22;5123020;28;21023;-67
2022/10/10 04:00:58;;;;;;;3.23;2.73;;;;;;;6.20;87.36;100233.13;5122410;28;20512;-67
2022/10/10 04:03:25;;;;;;;4.30;3.10;;;;;;;6.10;87.21;100237.41;5122348;28;20454;-67
2022/10/10 04:05:52;;;;;;;4.10;3.60;;;;;;;6.02;87.24;100224.69;5121680;28;20535;-67
2022/10/10 04:08:19;;;;;;;5.90;3.80;;;;;;;6.17;88.22;100226.22;5123330;28;20427;-67
2022/10/10 04:10:48;;;;;;;5.73;4.10;;;;;;;6.16;88.39;100229.88;5121163;28;20501;-67
2022/10/10 04:13:15;;;;;;;4.93;3.90;;;;;;;6.15;88.34;100225.50;5122884;28;20450;-67
2022/10/10 04:15:44;;;;;;;4.30;3.90;;;;;;;6.22;88.30;100225.91;5121474;28;20465;-67
2022/10/10 04:18:11;;;;;;;5.47;4.53;;;;;;;6.21;88.27;100225.06;5121686;28;20461;-67
2022/10/10 04:20:38;;;;;;;5.17;4.30;;;;;;;6.18;87.80;100227.06;5118295;28;20475;-67
2022/10/10 04:23:04;;;;;;;4.17;3.43;;;;;;;6.13;87.71;100219.47;5118779;28;20467;-67
2022/10/10 04:25:31;;;;;;;7.10;4.07;;;;;;;6.14;88.09;100221.13;5081403;28;20481;-67
2022/10/10 04:27:58;;;;;;;6.03;4.00;;;;;;;6.24;87.74;100220.47;5081950;28;20555;-68
2022/10/10 04:30:24;;;;;;;5.07;3.63;;;;;;;6.23;87.96;100219.59;5113585;28;20491;-67
2022/10/10 04:32:52;;;;;;;5.67;3.93;;;;;;;6.28;87.82;100222.78;5122211;28;20454;-67
2022/10/10 04:35:19;;;;;;;5.37;4.13;;;;;;;6.28;87.80;100209.50;5119592;28;20446;-68
2022/10/10 04:37:48;;;;;;;5.63;4.70;;;;;;;6.26;87.81;100216.72;5107951;28;20455;-68
2022/10/10 04:40:15;;;;;;;5.80;4.30;;;;;;;6.27;87.76;100213.13;5112461;28;20522;-68
2022/10/10 04:42:42;;;;;;;6.40;4.30;;;;;;;6.29;87.60;100213.03;5121035;28;20472;-67
2022/10/10 04:45:09;;;;;;;10.73;3.80;;;;;;;6.22;87.50;100207.31;5120351;28;20430;-66
2022/10/10 04:47:36;;;;;;;8.10;4.20;;;;;;;6.15;87.99;100209.56;5120422;28;20442;-66
2022/10/10 04:50:05;;;;;;;6.13;3.93;;;;;;;6.15;87.94;100204.25;5120569;28;20490;-67
2022/10/10 04:52:32;;;;;;;6.63;4.20;;;;;;;6.14;88.10;100199.06;5119961;28;20455;-67
2022/10/10 04:55:00;;;;;;;6.47;4.20;;;;;;;6.06;87.97;100201.44;5118436;28;20447;-67
2022/10/10 04:57:27;;;;;;;5.43;4.80;;;;;;;6.02;88.34;100200.81;5088979;28;20504;-67
2022/10/10 04:59:54;;;;;;;4.20;3.50;;;;;;;6.11;88.47;100194.84;5121028;28;20474;-67
2022/10/10 05:02:20;;;;;;;8.63;4.33;;;;;;;6.09;88.51;100196.75;5119420;28;20474;-67
2022/10/10 05:04:47;;;;;;;7.30;4.27;;;;;;;6.11;88.45;100201.94;5120617;28;20466;-67
2022/10/10 05:07:15;;;;;;;7.63;4.20;;;;;;;6.11;88.29;100199.28;5120235;28;20513;-67
2022/10/10 05:09:44;;;;;;;5.10;4.40;;;;;;;5.94;87.64;100200.50;5119355;28;20478;-67
2022/10/10 05:12:11;;;;;;;10.47;5.77;;;;;;;5.73;87.89;100214.38;5106204;28;21105;-67
2022/10/10 05:14:38;;;;;;;7.60;5.20;;;;;;;5.62;87.77;100204.53;5106903;28;20584;-67
2022/10/10 05:17:04;;;;;;;8.80;4.40;;;;;;;5.64;88.35;100207.06;5101714;28;20479;-67
2022/10/10 05:19:31;;;;;;;5.43;3.50;;;;;;;5.86;89.56;100203.72;5103379;28;20511;-67
2022/10/10 05:21:58;;;;;;;5.77;3.63;;;;;;;5.86;89.99;100201.06;5119850;28;20486;-67
2022/10/10 05:24:26;;;;;;;5.50;4.37;;;;;;;5.95;89.92;100195.06;5119986;28;20443;-67
2022/10/10 05:26:52;;;;;;;4.60;4.20;;;;;;;6.06;89.67;100204.94;5107828;28;20485;-67
2022/10/10 05:29:19;;;;;;;5.33;4.50;;;;;;;6.07;89.33;100197.81;5119540;28;20446;-68
2022/10/10 05:31:46;;;;;;;5.10;4.50;;;;;;;6.08;88.88;100204.84;5119450;28;20470;-68
2022/10/10 05:34:13;;;;;;;5.03;3.80;;;;;;;5.83;88.37;100199.47;5121176;28;20434;-68
2022/10/10 05:36:40;;;;;;;6.87;4.50;;;;;;;5.75;88.49;100201.00;5108976;28;20467;-67
2022/10/10 05:39:07;;;;;;;6.23;4.07;;;;;;;5.59;89.07;100199.44;5107818;28;20599;-66
2022/10/10 05:41:35;;;;;;;6.87;4.07;;;;;;;5.75;90.13;100206.31;5112367;28;20478;-66
2022/10/10 05:44:02;;;;;;;5.30;4.00;;;;;;;6.01;89.70;100199.13;5120859;28;20443;-67
2022/10/10 05:46:29;;;;;;;4.30;3.80;;;;;;;6.10;89.66;100195.78;5111533;28;20478;-66
2022/10/10 05:48:57;;;;;;;5.60;4.17;;;;;;;6.05;89.23;100197.09;5118650;28;20455;-67
2022/10/10 05:51:23;;;;;;;6.00;4.47;;;;;;;6.00;89.15;100190.31;5108033;28;20474;-66
2022/10/10 05:53:50;;;;;;;6.73;4.73;;;;;;;5.95;89.17;100192.41;5119258;28;20449;-67
2022/10/10 05:56:16;;;;;;;5.67;4.10;;;;;;;6.05;89.13;100187.31;5114329;28;20475;-66
2022/10/10 05:58:45;;;;;;;6.50;4.33;;;;;;;6.02;89.05;100192.84;5098920;28;20455;-66
2022/10/10 06:01:12;;;;;;;8.90;5.13;;;;;;;6.05;88.90;100197.94;5100175;28;20483;-69
2022/10/10 06:03:41;;;;;;;19.47;4.50;;;;;;;6.11;88.80;100183.34;5120202;28;20461;-69
2022/10/10 06:06:07;;;;;;;9.03;4.40;;;;;;;6.21;88.77;100190.56;5119092;28;20498;-70
2022/10/10 06:08:34;;;;;;;6.70;4.00;;;;;;;6.32;88.51;100195.06;5119325;28;20463;-71
2022/10/10 06:11:02;;;;;;;6.60;4.33;;;;;;;6.37;88.34;100192.91;5117776;28;20481;-71
2022/10/10 06:13:29;;;;;;;8.50;6.00;;;;;;;7.04;88.44;100203.81;5100141;28;20456;-69
2022/10/10 06:16:00;;;;;;;6.10;4.60;;;;;;;8.34;86.13;100202.28;5097893;28;20948;-69
2022/10/10 06:18:27;;;;;;;8.30;5.60;;;;;;;9.22;77.65;100198.44;5114647;28;20447;-69
2022/10/10 06:20:54;;;;;;;5.83;4.63;;;;;;;10.01;72.96;100189.66;5118773;28;20474;-70
2022/10/10 06:23:21;;;;;;;4.13;3.60;;;;;;;10.84;67.30;100200.78;5118757;28;20454;-70
2022/10/10 06:25:47;;;;;;;4.93;3.30;;;;;;;10.98;64.96;100196.81;5107724;28;20471;-70
2022/10/10 06:28:14;;;;;;;3.97;3.53;;;;;;;11.00;65.19;100189.50;5100074;28;20428;-71
2022/10/10 06:30:42;;;;;;;4.00;2.73;;;;;;;11.79;61.94;100192.69;5117965;28;20458;-71
2022/10/10 06:33:11;;;;;;;5.30;3.30;;;;;;;11.71;61.77;100195.28;5119384;28;20451;-71
2022/10/10 06:35:40;;;;;;;6.10;3.40;;;;;;;11.11;62.94;100189.31;5121925;28;20488;-71
2022/10/10 06:38:07;;;;;;;7.17;3.70;;;;;;;11.05;63.57;100197.09;5114168;28;20556;-71
2022/10/10 06:40:34;;;;;;;6.00;3.57;;;;;;;10.61;66.08;100194.91;5102034;28;20528;-71
2022/10/10 06:43:03;;;;;;;7.77;4.03;;;;;;;10.96;64.70;100206.00;5105655;28;20466;-71
2022/10/10 06:45:30;;;;;;;22.87;13.83;;;;;;;12.34;61.02;100199.81;5100112;28;20961;-71
2022/10/10 06:47:57;;;;;;;9.80;3.80;;;;;;;13.92;55.63;100198.78;5101585;28;20446;-71
2022/10/10 06:50:25;;;;;;;5.33;2.90;;;;;;;13.76;55.83;100202.28;5101626;28;20440;-71
2022/10/10 06:52:52;;;;;;;4.60;3.00;;;;;;;14.94;51.71;100194.03;5106086;28;20478;-71
2022/10/10 06:55:19;;;;;;;4.30;3.00;;;;;;;14.18;53.67;100203.22;5104942;28;20447;-71
2022/10/10 06:57:46;;;;;;;5.07;2.83;;;;;;;13.76;55.11;100204.97;5102987;28;20435;-71
2022/10/10 07:00:13;;;;;;;6.20;3.47;;;;;;;13.23;56.75;100196.13;5121215;28;20550;-71
2022/10/10 07:02:41;;;;;;;5.33;3.10;;;;;;;12.55;59.58;100196.81;5112392;28;20451;-71
2022/10/10 07:05:10;;;;;;;7.20;4.20;;;;;;;12.11;61.21;100194.06;5111998;28;20485;-71
2022/10/10 07:07:38;;;;;;;3.53;2.80;;;;;;;13.21;59.06;100194.59;5121249;28;20541;-71
2022/10/10 07:10:06;;;;;;;12.37;7.00;;;;;;;15.07;53.05;100180.88;5107503;28;20483;-72
2022/10/10 07:12:33;;;;;;;11.80;5.50;;;;;;;15.80;50.95;100191.63;5103831;28;20488;-72
2022/10/10 07:15:02;;;;;;;7.37;4.00;;;;;;;16.47;49.11;100190.16;5111444;28;20451;-76
2022/10/10 07:17:29;;;;;;;5.70;3.60;;;;;;;17.30;46.38;100191.09;5117685;28;20880;-75
2022/10/10 07:19:56;;;;;;;4.97;3.83;;;;;;;17.52;45.36;100193.91;5121659;28;20478;-76
2022/10/10 07:22:23;;;;;;;6.70;5.63;;;;;;;17.80;44.37;100188.66;5121116;28;20470;-76
2022/10/10 07:24:59;;;;;;;10.33;7.27;;;;;;;17.66;45.30;100187.66;5110592;28;20504;-78
2022/10/10 07:27:25;;;;;;;22.03;10.70;;;;;;;17.62;44.97;100187.19;5111313;28;20543;-75
2022/10/10 07:29:52;;;;;;;31.07;13.50;;;;;;;17.79;44.96;100190.50;5105753;28;20752;-75
2022/10/10 07:32:22;;;;;;;39.00;18.80;;;;;;;17.81;44.81;100185.75;5120383;28;20475;-74
2022/10/10 07:34:49;;;;;;;19.37;10.60;;;;;;;18.66;43.66;100177.06;5122834;28;20474;-75
2022/10/10 07:37:16;;;;;;;16.17;9.20;;;;;;;19.09;42.42;100179.72;5120730;28;20611;-74
2022/10/10 07:39:47;;;;;;;14.20;9.50;;;;;;;19.21;41.89;100180.84;5117522;28;20870;-75
2022/10/10 07:42:15;;;;;;;13.80;5.80;;;;;;;19.19;42.67;100189.16;5101728;28;20485;-75
2022/10/10 07:44:42;;;;;;;4.43;3.07;;;;;;;19.97;41.16;100184.59;5121448;28;21060;-75
2022/10/10 07:47:09;;;;;;;4.10;2.73;;;;;;;20.60;39.55;100189.72;5120979;28;20516;-75
2022/10/10 07:49:35;;;;;;;7.97;3.17;;;;;;;18.41;43.50;100185.59;5116611;28;20695;-75
2022/10/10 07:52:02;;;;;;;3.60;2.50;;;;;;;19.18;42.36;100187.50;5109782;28;20465;-75
2022/10/10 07:54:29;;;;;;;5.13;2.90;;;;;;;19.74;40.79;100188.47;5090786;28;20450;-75
2022/10/10 07:56:56;;;;;;;4.90;3.00;;;;;;;19.89;40.84;100185.59;5090450;28;20477;-75
2022/10/10 07:59:27;;;;;;;7.20;3.07;;;;;;;20.16;40.33;100189.22;5121083;28;20448;-75
2022/10/10 08:01:54;;;;;;;3.10;2.60;;;;;;;19.26;42.64;100191.09;5121793;28;20491;-75
2022/10/10 08:04:21;;;;;;;9.27;2.73;;;;;;;19.82;41.57;100182.00;5112764;28;20445;-75
2022/10/10 08:06:48;;;;;;;5.70;2.73;;;;;;;20.17;40.40;100185.44;5100176;28;20474;-75
2022/10/10 08:09:15;;;;;;;7.00;3.13;;;;;;;20.57;39.89;100181.97;5101216;28;20517;-75
2022/10/10 08:11:42;;;;;;;4.37;2.70;;;;;;;20.23;40.90;100183.81;5101080;28;20481;-75
2022/10/10 08:14:08;;;;;;;4.67;3.40;;;;;;;20.72;40.59;100182.63;5100990;28;20439;-75
2022/10/10 08:16:38;;;;;;;4.20;2.90;;;;;;;20.79;39.92;100188.06;5099547;28;20507;-75
2022/10/10 08:19:05;;;;;;;4.00;3.10;;;;;;;20.74;40.87;100185.97;5100385;28;20466;-75
2022/10/10 08:21:34;;;;;;;4.47;2.97;;;;;;;20.72;41.22;100176.38;5099524;28;20482;-75
2022/10/10 08:24:04;;;;;;;6.00;3.17;;;;;;;23.44;35.58;100178.69;5099389;28;20454;-75
2022/10/10 08:26:31;;;;;;;9.13;3.40;;;;;;;21.14;40.21;100172.34;5101505;28;20485;-75
2022/10/10 08:28:58;;;;;;;10.30;3.17;;;;;;;20.10;42.60;100171.88;5099784;28;20459;-75
2022/10/10 08:31:24;;;;;;;2.90;2.50;;;;;;;21.74;39.04;100174.94;5100699;28;21063;-75
2022/10/10 08:33:53;;;;;;;3.30;2.27;;;;;;;21.97;38.29;100162.66;5101592;28;20482;-75
2022/10/10 08:36:21;;;;;;;3.57;2.70;;;;;;;22.77;36.82;100175.75;5098828;28;20479;-75
2022/10/10 08:38:48;;;;;;;7.90;3.10;;;;;;;22.92;37.39;100172.72;5101160;28;20425;-75
2022/10/10 08:41:20;;;;;;;4.60;2.40;;;;;;;22.75;37.97;100173.25;5099861;28;20550;-75
2022/10/10 08:43:50;;;;;;;3.10;2.23;;;;;;;23.81;35.60;100170.50;5100519;28;20450;-75
2022/10/10 08:46:21;;;;;;;8.90;3.10;;;;;;;24.03;35.64;100172.75;5100629;28;20474;-75
2022/10/10 08:48:49;;;;;;;5.27;3.17;;;;;;;23.49;36.05;100162.47;5100654;28;20962;-76
2022/10/10 08:51:25;;;;;;;4.43;2.70;;;;;;;22.43;38.39;100167.03;5098785;28;20554;-75
2022/10/10 08:53:55;;;;;;;7.87;3.20;;;;;;;23.01;36.98;100162.34;5100741;28;21015;-75
2022/10/10 08:56:27;;;;;;;5.27;2.90;;;;;;;23.54;36.81;100163.69;5100265;28;21212;-74
2022/10/10 08:58:56;;;;;;;4.03;2.80;;;;;;;23.20;36.41;100155.88;5099823;28;20465;-74
2022/10/10 09:01:32;;;;;;;6.53;3.00;;;;;;;23.86;35.71;100161.63;5099593;28;20478;-74
2022/10/10 09:04:00;;;;;;;7.20;3.47;;;;;;;23.24;37.82;100170.72;5100748;28;20455;-74
2022/10/10 09:06:43;;;;;;;6.93;2.70;;;;;;;24.98;33.89;100163.72;5098036;28;20555;-74
2022/10/10 09:09:16;;;;;;;7.40;3.10;;;;;;;23.71;35.84;100170.19;5100211;28;20546;-74
2022/10/10 09:11:54;;;;;;;5.10;2.90;;;;;;;21.84;39.59;100181.78;5100025;28;20479;-74
2022/10/10 09:14:33;;;;;;;7.07;3.40;;;;;;;21.72;40.50;100171.59;5099707;28;20441;-75
2022/10/10 09:17:03;;;;;;;3.90;3.20;;;;;;;22.34;39.61;100173.78;5099743;28;21026;-74
2022/10/10 09:19:38;;;;;;;3.40;2.97;;;;;;;22.17;39.30;100160.66;5098637;28;20453;-74
2022/10/10 09:22:18;;;;;;;4.80;3.73;;;;;;;21.63;40.39;100164.72;5098278;28;20506;-75
2022/10/10 09:24:46;;;;;;;5.93;3.30;;;;;;;21.10;42.38;100167.56;5100976;28;20497;-74
2022/10/10 09:27:16;;;;;;;6.13;3.80;;;;;;;21.79;41.00;100175.13;5099461;28;20504;-74
2022/10/10 09:29:47;;;;;;;7.07;3.33;;;;;;;21.83;41.09;100161.91;5098857;28;20474;-74
2022/10/10 09:32:18;;;;;;;9.53;3.20;;;;;;;22.35;40.13;100164.56;5099628;28;20476;-74
2022/10/10 09:34:48;;;;;;;7.67;3.70;;;;;;;22.19;41.06;100164.00;5100866;28;20535;-74
2022/10/10 09:37:21;;;;;;;5.87;3.30;;;;;;;21.67;41.23;100163.25;5098047;28;20539;-75
2022/10/10 09:39:50;;;;;;;6.93;3.70;;;;;;;20.76;43.36;100156.75;5100192;28;20456;-75
2022/10/10 09:42:19;;;;;;;5.57;3.70;;;;;;;20.06;46.19;100165.19;5097926;28;20509;-75
2022/10/10 09:44:46;;;;;;;5.93;3.60;;;;;;;20.87;43.55;100160.69;5100570;28;20995;-75
2022/10/10 09:47:13;;;;;;;8.93;3.10;;;;;;;21.06;44.07;100162.53;5099612;28;20483;-75
2022/10/10 09:49:40;;;;;;;8.00;3.50;;;;;;;22.16;41.14;100174.50;5098354;28;20819;-75
2022/10/10 09:52:24;;;;;;;9.93;3.23;;;;;;;23.25;38.95;100172.41;5099147;28;20476;-75
2022/10/10 09:54:51;;;;;;;6.17;4.33;;;;;;;23.53;38.52;100165.59;5099751;28;20437;-75
2022/10/10 09:57:21;;;;;;;6.20;2.93;;;;;;;23.23;39.08;100177.25;5097889;28;20478;-75
2022/10/10 09:59:48;;;;;;;7.50;3.10;;;;;;;22.87;38.92;100165.19;5098493;28;20543;-76
2022/10/10 10:02:18;;;;;;;6.50;3.30;;;;;;;21.64;42.24;100177.25;5099398;28;20470;-75
2022/10/10 10:04:46;;;;;;;3.63;3.03;;;;;;;21.69;41.43;100182.91;5099314;28;20527;-74
2022/10/10 10:07:26;;;;;;;6.20;3.17;;;;;;;21.49;42.30;100172.09;5098384;28;20481;-74
2022/10/10 10:09:57;;;;;;;6.87;3.37;;;;;;;22.34;41.39;100179.22;5101820;28;21226;-74
2022/10/10 10:12:27;;;;;;;5.73;3.30;;;;;;;22.49;41.14;100176.19;5101974;28;20480;-74
2022/10/10 10:14:59;;;;;;;7.17;3.50;;;;;;;23.10;39.79;100183.66;5104377;28;20434;-73
2022/10/10 10:17:26;;;;;;;6.87;2.97;;;;;;;23.50;39.24;100182.41;5102970;28;20481;-74
2022/10/10 10:19:55;;;;;;;4.80;3.07;;;;;;;23.71;38.19;100183.00;5101350;28;20455;-74
2022/10/10 10:22:30;;;;;;;9.33;3.00;;;;;;;22.84;39.72;100182.00;5102983;28;20857;-74
2022/10/10 10:24:59;;;;;;;6.00;2.80;;;;;;;23.01;39.61;100181.44;5104195;28;20486;-74
2022/10/10 10:27:29;;;;;;;4.67;3.00;;;;;;;23.36;38.91;100176.25;5102190;28;20571;-74
2022/10/10 10:29:57;;;;;;;6.97;3.10;;;;;;;23.41;39.15;100179.16;5103628;28;20541;-74
2022/10/10 10:32:37;;;;;;;4.70;2.90;;;;;;;23.64;37.71;100177.63;5102582;28;20489;-74
2022/10/10 10:35:18;;;;;;;3.70;2.53;;;;;;;23.99;37.41;100179.72;5102415;28;20450;-74
2022/10/10 10:37:54;;;;;;;5.73;3.00;;;;;;;24.36;36.93;100182.38;5103189;28;20454;-74
2022/10/10 10:40:32;;;;;;;5.13;3.00;;;;;;;23.59;38.01;100181.06;5102265;28;20457;-74
2022/10/10 10:43:20;;;;;;;6.10;2.67;;;;;;;23.48;37.83;100185.38;5102495;28;20485;-74
2022/10/10 10:45:54;;;;;;;6.87;2.40;;;;;;;24.54;37.32;100197.88;5102532;28;20527;-74
2022/10/10 10:48:28;;;;;;;3.73;2.30;;;;;;;24.38;36.74;100192.00;5103020;28;20422;-74
2022/10/10 10:50:55;;;;;;;5.13;2.23;;;;;;;24.26;35.97;100193.84;5101555;28;20465;-74
2022/10/10 10:53:28;;;;;;;6.53;3.03;;;;;;;24.06;34.87;100191.38;5103076;28;20476;-74
2022/10/10 10:56:05;;;;;;;4.60;2.07;;;;;;;23.49;36.00;100189.78;5102794;28;20929;-75
2022/10/10 10:58:52;;;;;;;6.40;2.07;;;;;;;23.66;36.58;100186.41;5102242;28;20441;-74
2022/10/10 11:01:26;;;;;;;3.80;1.73;;;;;;;23.25;36.36;100185.22;5099058;28;20542;-74
2022/10/10 11:03:59;;;;;;;4.13;2.17;;;;;;;23.04;36.44;100184.53;5102025;28;20458;-74
2022/10/10 11:06:36;;;;;;;3.77;2.00;;;;;;;23.54;36.70;100178.19;5101984;28;20493;-74
2022/10/10 11:09:12;;;;;;;4.70;2.07;;;;;;;24.86;35.03;100182.03;5102608;28;20476;-74
2022/10/10 11:11:50;;;;;;;5.30;1.77;;;;;;;24.41;35.04;100185.25;5100638;28;20473;-74
2022/10/10 11:14:29;;;;;;;3.77;2.03;;;;;;;22.89;37.44;100182.16;5103047;28;20457;-74
2022/10/10 11:16:59;;;;;;;5.33;2.20;;;;;;;22.64;37.96;100175.91;5102162;28;21035;-75
2022/10/10 11:19:29;;;;;;;4.57;2.30;;;;;;;23.42;37.41;100180.84;5100460;28;20472;-75
2022/10/10 11:22:00;;;;;;;6.70;1.70;;;;;;;24.25;35.19;100182.09;5101044;28;20480;-75
2022/10/10 11:24:39;;;;;;;4.27;1.90;;;;;;;24.49;34.96;100182.16;5102878;28;20456;-74
2022/10/10 11:27:12;;;;;;;3.90;1.80;;;;;;;23.27;36.60;100175.72;5101013;28;21051;-74
2022/10/10 11:29:49;;;;;;;5.07;2.03;;;;;;;24.09;35.30;100171.81;5100291;28;20501;-74
2022/10/10 11:32:19;;;;;;;4.90;1.90;;;;;;;22.66;38.02;100173.78;5101042;28;20465;-74
2022/10/10 11:34:53;;;;;;;4.10;1.70;;;;;;;23.27;36.86;100172.19;5100706;28;20458;-74
2022/10/10 11:37:25;;;;;;;4.20;2.37;;;;;;;22.72;37.74;100167.41;5101278;28;20489;-74
2022/10/10 11:39:55;;;;;;;7.47;1.90;;;;;;;21.74;39.71;100174.09;5102445;28;20457;-74